createdAt,value
2023-04-01T00:21:23.367Z,65.20
2023-04-01T00:26:26.564Z,66.80
2023-04-01T00:31:28.991Z,65.60
2023-04-01T00:36:31.331Z,65.10
2023-04-01T00:41:33.645Z,64.70
2023-04-01T00:46:36.670Z,64.30
2023-04-01T00:51:42.085Z,64.00
2023-04-01T00:57:04.413Z,63.80
2023-04-01T01:02:11.563Z,63.70
2023-04-01T01:07:29.172Z,62.70
2023-04-01T01:39:35.032Z,62.00
2023-04-01T01:44:39.283Z,62.00
2023-04-01T01:49:44.475Z,62.10
2023-04-01T01:54:51.764Z,62.30
2023-04-01T01:59:59.847Z,62.40
2023-04-01T02:05:06.228Z,62.30
2023-04-01T02:10:09.926Z,62.50
2023-04-01T02:15:16.067Z,62.70
2023-04-01T02:20:23.173Z,62.70
2023-04-01T02:25:29.530Z,62.70
2023-04-01T02:30:34.811Z,62.90
2023-04-01T02:35:38.407Z,62.80
2023-04-01T02:40:51.465Z,62.90
2023-04-01T02:45:53.921Z,62.60
2023-04-01T02:50:56.173Z,62.20
2023-04-01T02:55:58.382Z,62.20
2023-04-01T03:01:00.681Z,62.20
2023-04-01T03:06:08.244Z,62.00
2023-04-01T03:11:11.409Z,62.10
2023-04-01T03:16:15.543Z,62.20
2023-04-01T03:21:20.940Z,62.20
2023-04-01T03:26:23.723Z,62.30
2023-04-01T03:31:26.333Z,62.30
2023-04-01T03:36:31.916Z,62.00
2023-04-01T03:41:36.621Z,61.90
2023-04-01T03:46:39.268Z,61.90
2023-04-01T03:51:43.868Z,61.50
2023-04-01T03:56:46.486Z,61.60
2023-04-01T04:01:49.082Z,61.30
2023-04-01T04:06:52.228Z,61.30
2023-04-01T04:11:57.197Z,61.40
2023-04-01T04:16:59.998Z,61.70
2023-04-01T04:22:02.501Z,61.70
2023-04-01T04:27:06.323Z,62.10
2023-04-01T04:32:09.395Z,62.20
2023-04-01T04:37:13.367Z,62.60
2023-04-01T04:42:15.816Z,62.60
2023-04-01T04:47:18.442Z,62.60
2023-04-01T04:52:21.154Z,62.60
2023-04-01T04:57:23.683Z,62.80
2023-04-01T05:02:31.070Z,62.90
2023-04-01T05:07:34.849Z,63.00
2023-04-01T05:12:38.544Z,63.20
2023-04-01T05:17:42.467Z,63.00
2023-04-01T05:22:46.054Z,62.90
2023-04-01T05:27:48.299Z,62.90
2023-04-01T05:32:50.907Z,62.90
2023-04-01T05:37:53.596Z,62.80
2023-04-01T05:42:57.184Z,62.70
2023-04-01T05:48:00.581Z,62.40
2023-04-01T05:53:05.870Z,63.00
2023-04-01T05:58:08.398Z,62.90
2023-04-01T06:03:12.599Z,63.00
2023-04-01T06:08:20.438Z,63.10
2023-04-01T06:45:32.546Z,61.90
2023-04-01T06:56:17.868Z,61.20
2023-04-01T07:01:36.838Z,62.00
2023-04-01T07:06:58.354Z,63.00
2023-04-01T07:12:07.633Z,62.10
2023-04-01T07:17:34.631Z,61.90
2023-04-01T07:22:44.539Z,62.30
2023-04-01T07:28:18.183Z,62.50
2023-04-01T07:49:42.219Z,61.00
2023-04-01T08:00:19.130Z,62.40
2023-04-01T08:05:57.488Z,61.70
2023-04-01T08:16:39.130Z,62.60
2023-04-01T08:21:48.461Z,64.10
2023-04-01T08:26:57.219Z,63.90
2023-04-01T08:32:09.029Z,62.60
2023-04-01T08:37:23.427Z,62.70
2023-04-01T08:53:17.463Z,63.00
2023-04-01T08:58:53.732Z,63.20
2023-04-01T09:10:02.725Z,65.60
2023-04-01T09:15:35.015Z,64.40
2023-04-01T09:21:06.058Z,65.90
2023-04-01T09:31:51.603Z,65.80
2023-04-01T09:37:36.299Z,63.40
2023-04-01T09:53:42.496Z,63.70
2023-04-01T10:52:00.404Z,66.90
2023-04-01T11:35:32.770Z,68.50
2023-04-01T11:41:02.160Z,68.40
2023-04-01T12:18:30.394Z,68.00
2023-04-01T20:49:34.936Z,83.40
2023-04-01T21:37:20.102Z,74.00
2023-04-01T21:53:41.865Z,74.10
2023-04-01T21:59:18.889Z,74.10
2023-04-01T22:20:41.251Z,73.30
2023-04-01T22:31:18.401Z,73.00
2023-04-01T22:36:55.023Z,72.80
2023-04-01T22:52:51.236Z,73.10
2023-04-01T22:57:59.926Z,72.30
2023-04-01T23:08:56.876Z,72.50
2023-04-01T23:41:07.483Z,71.80
2023-04-01T23:46:10.150Z,71.10
2023-04-01T23:51:37.339Z,70.80
2023-04-01T23:56:43.521Z,70.40
